createdAt,value
2019-02-04T00:01:22.580Z,101280.22
2019-02-04T00:07:15.236Z,101274.11
2019-02-04T00:10:06.220Z,101273.59
2019-02-04T00:12:48.932Z,101274.96
2019-02-04T00:19:07.969Z,101277.13
2019-02-04T00:21:58.340Z,101284.37
2019-02-04T00:25:02.963Z,101290.41
2019-02-04T00:27:53.318Z,101286.09
2019-02-04T00:30:36.079Z,101293.08
2019-02-04T00:33:26.418Z,101292.59
2019-02-04T00:36:30.646Z,101290.83
2019-02-04T00:39:21.017Z,101290.86
2019-02-04T00:42:04.319Z,101291.32
2019-02-04T00:44:54.697Z,101294.34
2019-02-04T00:47:59.606Z,101299.50
2019-02-04T00:53:58.429Z,101305.22
2019-02-04T00:56:48.792Z,101315.58
2019-02-04T00:59:31.416Z,101323.41
2019-02-04T01:02:21.823Z,101318.70
2019-02-04T01:05:05.938Z,101317.30
2019-02-04T01:11:24.805Z,101322.00
2019-02-04T01:14:07.864Z,101322.88
2019-02-04T01:17:03.379Z,101323.67
2019-02-04T01:20:02.398Z,101323.90
2019-02-04T01:22:52.866Z,101328.59
2019-02-04T01:25:35.604Z,101328.06
2019-02-04T01:28:26.003Z,101326.77
2019-02-04T01:31:30.330Z,101325.47
2019-02-04T01:34:20.711Z,101319.78
2019-02-04T01:37:03.647Z,101319.89
2019-02-04T01:39:54.005Z,101326.39
2019-02-04T01:42:37.436Z,101330.28
2019-02-04T01:45:27.802Z,101341.42
2019-02-04T01:48:10.379Z,101345.37
2019-02-04T01:51:00.745Z,101348.00
2019-02-04T01:53:43.992Z,101345.52
2019-02-04T01:56:34.316Z,101343.23
2019-02-04T01:59:17.023Z,101345.02
2019-02-04T02:02:07.770Z,101338.08
2019-02-04T02:04:50.713Z,101341.47
2019-02-04T02:07:41.069Z,101340.92
2019-02-04T02:10:24.031Z,101332.72
2019-02-04T02:13:14.440Z,101341.84
2019-02-04T02:16:04.819Z,101349.22
2019-02-04T02:18:48.290Z,101346.16
2019-02-04T02:21:38.675Z,101353.95
2019-02-04T02:24:21.701Z,101348.77
2019-02-04T02:27:12.189Z,101348.30
2019-02-04T02:29:55.580Z,101338.37
2019-02-04T02:32:45.947Z,101331.87
2019-02-04T02:35:28.513Z,101331.46
2019-02-04T02:38:18.895Z,101333.56
2019-02-04T02:41:01.449Z,101330.50
2019-02-04T02:43:51.837Z,101340.13
2019-02-04T02:46:34.984Z,101341.89
2019-02-04T02:49:25.361Z,101338.37
2019-02-04T02:52:09.108Z,101340.97
2019-02-04T02:54:59.452Z,101337.03
2019-02-04T02:57:42.510Z,101341.39
2019-02-04T03:00:33.246Z,101338.33
2019-02-04T03:03:16.380Z,101341.34
2019-02-04T03:06:06.739Z,101336.57
2019-02-04T03:08:49.471Z,101341.30
2019-02-04T03:11:39.810Z,101346.03
2019-02-04T03:14:23.089Z,101350.39
2019-02-04T03:17:13.451Z,101356.51
2019-02-04T03:20:18.286Z,101359.89
2019-02-04T03:23:08.629Z,101367.64
2019-02-04T03:25:51.415Z,101364.20
2019-02-04T03:28:41.794Z,101357.29
2019-02-04T03:31:25.147Z,101354.41
2019-02-04T03:34:15.487Z,101353.48
2019-02-04T03:36:59.060Z,101356.09
2019-02-04T03:39:49.398Z,101360.44
2019-02-04T03:42:32.363Z,101367.31
2019-02-04T03:45:22.849Z,101361.37
2019-02-04T03:48:25.683Z,101364.80
2019-02-04T03:51:16.205Z,101359.89
2019-02-04T03:53:59.311Z,101359.98
2019-02-04T03:56:49.658Z,101360.03
2019-02-04T03:59:32.553Z,101368.09
2019-02-04T04:02:23.229Z,101369.53
2019-02-04T04:05:13.795Z,101366.94
2019-02-04T04:08:18.903Z,101363.50
2019-02-04T04:14:11.442Z,101363.08
2019-02-04T04:16:54.792Z,101356.97
2019-02-04T04:19:45.169Z,101360.06
2019-02-04T04:22:28.516Z,101357.02
2019-02-04T04:28:47.557Z,101369.53
2019-02-04T04:31:37.893Z,101359.98
2019-02-04T04:34:42.465Z,101357.92
2019-02-04T04:37:32.830Z,101350.39
2019-02-04T04:40:16.114Z,101361.83
2019-02-04T04:43:06.523Z,101356.51
2019-02-04T04:45:49.997Z,101353.58
2019-02-04T04:48:40.353Z,101351.86
2019-02-04T04:51:23.553Z,101355.29
2019-02-04T04:54:13.915Z,101352.70
2019-02-04T04:56:57.035Z,101353.53
2019-02-04T04:59:47.443Z,101350.94
2019-02-04T05:02:30.115Z,101354.75
2019-02-04T05:05:20.768Z,101344.78
2019-02-04T05:08:03.956Z,101335.70
2019-02-04T05:10:54.296Z,101337.03
2019-02-04T05:13:37.440Z,101331.80
2019-02-04T05:16:27.846Z,101342.69
2019-02-04T05:19:10.989Z,101346.58
2019-02-04T05:22:01.339Z,101347.00
2019-02-04T05:25:06.320Z,101346.04
2019-02-04T05:27:56.688Z,101345.98
2019-02-04T05:30:40.148Z,101346.45
2019-02-04T05:33:30.513Z,101344.31
2019-02-04T05:36:13.541Z,101350.72
2019-02-04T05:42:34.681Z,101346.82
2019-02-04T05:45:25.119Z,101347.23
2019-02-04T05:48:08.570Z,101357.11
2019-02-04T05:50:58.931Z,101353.62
2019-02-04T05:53:41.761Z,101360.13
2019-02-04T05:56:32.127Z,101357.56
2019-02-04T05:59:15.492Z,101364.06
2019-02-04T06:02:09.514Z,101367.86
2019-02-04T06:05:13.587Z,101369.10
2019-02-04T06:08:04.896Z,101373.46
2019-02-04T06:10:48.046Z,101373.77
2019-02-04T06:13:38.419Z,101378.61
2019-02-04T06:16:21.012Z,101380.73
2019-02-04T06:19:04.063Z,101383.31
2019-02-04T06:21:54.444Z,101377.77
2019-02-04T06:24:37.012Z,101382.48
2019-02-04T06:27:27.362Z,101375.64
2019-02-04T06:30:10.710Z,101374.71
2019-02-04T06:33:01.102Z,101369.98
2019-02-04T06:36:06.117Z,101362.55
2019-02-04T06:38:56.490Z,101373.77
2019-02-04T06:41:39.566Z,101366.03
2019-02-04T06:44:29.885Z,101366.51
2019-02-04T06:47:34.941Z,101362.63
2019-02-04T06:50:25.307Z,101366.08
2019-02-04T06:53:08.314Z,101369.06
2019-02-04T06:55:58.655Z,101362.55
2019-02-04T06:59:03.182Z,101365.67
2019-02-04T07:01:53.575Z,101363.50
2019-02-04T07:04:36.451Z,101358.25
2019-02-04T07:07:26.883Z,101352.70
2019-02-04T07:10:31.733Z,101347.09
2019-02-04T07:13:22.105Z,101341.06
2019-02-04T07:16:05.248Z,101345.33
2019-02-04T07:18:55.658Z,101345.02
2019-02-04T07:22:00.707Z,101350.67
2019-02-04T07:24:43.895Z,101347.08
2019-02-04T07:27:34.265Z,101342.92
2019-02-04T07:30:18.542Z,101340.11
2019-02-04T07:33:08.893Z,101339.40
2019-02-04T07:35:51.421Z,101339.52
2019-02-04T07:38:41.771Z,101340.48
2019-02-04T07:41:25.110Z,101337.09
2019-02-04T07:44:15.465Z,101338.42
2019-02-04T07:47:19.878Z,101333.23
2019-02-04T07:50:10.266Z,101336.28
2019-02-04T07:52:53.245Z,101321.05
2019-02-04T07:55:43.622Z,101331.94
2019-02-04T07:58:26.377Z,101317.17
2019-02-04T08:01:16.735Z,101317.59
2019-02-04T08:03:59.628Z,101330.62
2019-02-04T08:06:49.966Z,101325.41
2019-02-04T08:09:33.136Z,101328.47
2019-02-04T08:12:23.482Z,101332.33
2019-02-04T08:15:08.155Z,101340.57
2019-02-04T08:17:58.896Z,101336.66
2019-02-04T08:20:42.330Z,101337.09
2019-02-04T08:23:25.134Z,101337.55
2019-02-04T08:26:15.480Z,101344.05
2019-02-04T08:28:58.295Z,101347.98
2019-02-04T08:31:48.658Z,101334.97
2019-02-04T08:34:31.263Z,101347.58
2019-02-04T08:37:21.654Z,101341.00
2019-02-04T08:40:05.014Z,101336.83
2019-02-04T08:42:55.370Z,101332.02
2019-02-04T08:45:37.957Z,101327.78
2019-02-04T08:48:28.318Z,101326.61
2019-02-04T08:51:33.159Z,101325.36
2019-02-04T08:54:23.513Z,101318.45
2019-02-04T08:57:06.075Z,101322.39
2019-02-04T08:59:56.595Z,101320.22
2019-02-04T09:02:39.181Z,101313.25
2019-02-04T09:05:22.433Z,101304.44
2019-02-04T09:08:12.773Z,101306.72
2019-02-04T09:10:55.356Z,101312.83
2019-02-04T09:13:45.756Z,101324.71
2019-02-04T09:16:28.810Z,101306.95
2019-02-04T09:19:19.156Z,101302.95
2019-02-04T09:22:02.640Z,101313.47
2019-02-04T09:24:52.995Z,101313.52
2019-02-04T09:27:36.080Z,101307.45
2019-02-04T09:30:26.859Z,101306.69
2019-02-04T09:33:29.737Z,101317.99
2019-02-04T09:36:20.100Z,101315.34
2019-02-04T09:39:05.015Z,101304.06
2019-02-04T09:41:55.370Z,101310.62
2019-02-04T09:44:38.195Z,101302.80
2019-02-04T09:47:28.553Z,101307.20
2019-02-04T09:50:21.408Z,101300.66
2019-02-04T09:56:34.622Z,101301.13
2019-02-04T09:59:24.955Z,101296.72
2019-02-04T10:02:08.058Z,101303.23
2019-02-04T10:04:51.379Z,101292.82
2019-02-04T10:07:41.717Z,101296.33
2019-02-04T10:10:32.090Z,101290.25
2019-02-04T10:13:14.875Z,101286.76
2019-02-04T10:15:57.781Z,101289.34
2019-02-04T10:18:48.104Z,101298.91
2019-02-04T10:21:30.965Z,101286.30
2019-02-04T10:24:21.335Z,101290.67
2019-02-04T10:27:04.666Z,101288.95
2019-02-04T10:29:55.666Z,101291.10
2019-02-04T10:32:38.467Z,101303.23
2019-02-04T10:35:28.842Z,101299.30
2019-02-04T10:38:11.516Z,101295.30
2019-02-04T10:41:01.948Z,101289.61
2019-02-04T10:44:07.296Z,101291.81
2019-02-04T10:46:57.674Z,101293.45
2019-02-04T10:49:40.986Z,101274.64
2019-02-04T10:52:31.363Z,101278.09
2019-02-04T10:55:35.588Z,101277.12
2019-02-04T10:58:25.990Z,101281.55
2019-02-04T11:01:09.110Z,101263.64
2019-02-04T11:03:59.425Z,101261.86
2019-02-04T11:06:42.265Z,101260.98
2019-02-04T11:09:32.629Z,101257.45
2019-02-04T11:12:15.649Z,101251.09
2019-02-04T11:15:46.073Z,101249.22
2019-02-04T11:18:28.962Z,101239.66
2019-02-04T11:21:19.316Z,101231.37
2019-02-04T11:24:02.827Z,101242.63
2019-02-04T11:26:53.208Z,101248.48
2019-02-04T11:29:35.991Z,101235.44
2019-02-04T11:32:26.379Z,101233.67
2019-02-04T11:35:09.794Z,101226.39
2019-02-04T11:37:53.172Z,101232.33
2019-02-04T11:40:45.781Z,101232.80
2019-02-04T11:43:48.396Z,101235.85
2019-02-04T11:46:38.882Z,101241.70
2019-02-04T11:49:21.424Z,101240.77
2019-02-04T11:52:11.769Z,101222.23
2019-02-04T11:55:15.966Z,101234.77
2019-02-04T11:58:07.946Z,101228.05
2019-02-04T12:01:11.708Z,101226.45
2019-02-04T12:04:02.029Z,101223.48
2019-02-04T12:06:45.316Z,101219.91
2019-02-04T12:09:35.657Z,101220.70
2019-02-04T12:12:19.041Z,101232.16
2019-02-04T12:15:12.340Z,101238.97
2019-02-04T12:17:55.792Z,101224.17
2019-02-04T12:20:46.147Z,101215.31
2019-02-04T12:23:29.570Z,101210.72
2019-02-04T12:26:19.918Z,101205.81
2019-02-04T12:29:23.240Z,101199.82
2019-02-04T12:32:13.626Z,101210.28
2019-02-04T12:34:56.483Z,101201.83
2019-02-04T12:41:15.021Z,101193.98
2019-02-04T12:50:49.185Z,101170.80
2019-02-04T12:53:39.571Z,101185.30
2019-02-04T12:56:22.920Z,101189.70
2019-02-04T12:59:13.300Z,101180.93
2019-02-04T13:01:56.279Z,101174.83
2019-02-04T13:04:46.640Z,101166.31
2019-02-04T13:07:29.413Z,101178.48
2019-02-04T13:13:56.083Z,101185.63
2019-02-04T13:16:38.923Z,101176.94
2019-02-04T13:19:29.336Z,101173.45
2019-02-04T13:22:12.648Z,101165.56
2019-02-04T13:25:02.987Z,101159.39
2019-02-04T13:28:12.420Z,101161.28
2019-02-04T13:31:01.519Z,101153.05
2019-02-04T13:33:44.155Z,101163.57
2019-02-04T13:36:34.551Z,101158.39
2019-02-04T13:39:38.739Z,101157.09
2019-02-04T13:42:29.084Z,101154.91
2019-02-04T13:45:13.969Z,101138.33
2019-02-04T13:50:57.468Z,101145.44
2019-02-04T13:53:47.924Z,101137.03
2019-02-04T13:56:38.291Z,101134.53
2019-02-04T13:59:21.365Z,101144.56
2019-02-04T14:02:13.509Z,101142.89
2019-02-04T14:05:16.400Z,101142.08
2019-02-04T14:07:59.230Z,101152.48
2019-02-04T14:10:49.564Z,101145.85
2019-02-04T14:16:36.755Z,101140.58
2019-02-04T14:19:27.287Z,101148.86
2019-02-04T14:22:10.505Z,101138.47
2019-02-04T14:25:00.850Z,101129.84
2019-02-04T14:27:43.737Z,101135.02
2019-02-04T14:33:58.183Z,101120.72
2019-02-04T14:37:00.896Z,101131.28
2019-02-04T14:39:51.269Z,101119.41
2019-02-04T14:42:34.333Z,101119.01
2019-02-04T14:45:45.062Z,101116.46
2019-02-04T14:48:49.963Z,101117.24
2019-02-04T14:52:20.762Z,101106.83
2019-02-04T14:55:32.205Z,101105.10
2019-02-04T14:59:00.634Z,101104.23
2019-02-04T15:02:29.058Z,101103.34
2019-02-04T15:05:16.120Z,101101.30
2019-02-04T15:08:18.507Z,101101.75
2019-02-04T15:11:40.954Z,101109.94
2019-02-04T15:14:31.717Z,101111.19
2019-02-04T15:17:53.940Z,101106.38
2019-02-04T15:21:08.389Z,101107.75
2019-02-04T15:24:36.841Z,101102.64
2019-02-04T15:27:39.280Z,101102.22
2019-02-04T15:30:52.534Z,101103.98
2019-02-04T15:34:15.822Z,101097.84
2019-02-04T15:38:05.866Z,101094.34
2019-02-04T15:40:54.886Z,101093.05
2019-02-04T15:44:23.318Z,101094.00
2019-02-04T15:47:11.477Z,101090.05
2019-02-04T15:50:39.896Z,101094.41
2019-02-04T15:53:22.582Z,101091.77
2019-02-04T15:56:12.963Z,101100.52
2019-02-04T15:58:56.102Z,101098.32
2019-02-04T16:01:46.630Z,101092.23
2019-02-04T16:04:51.616Z,101081.81
2019-02-04T16:07:42.015Z,101087.05
2019-02-04T16:10:32.376Z,101091.45
2019-02-04T16:13:15.858Z,101077.58
2019-02-04T16:16:09.029Z,101070.63
2019-02-04T16:18:51.865Z,101074.52
2019-02-04T16:21:42.309Z,101074.17
2019-02-04T16:24:32.755Z,101074.08
2019-02-04T16:27:35.358Z,101071.15
2019-02-04T16:30:25.787Z,101070.28
2019-02-04T16:33:30.881Z,101061.14
2019-02-04T16:36:21.278Z,101059.88
2019-02-04T16:39:06.616Z,101081.58
2019-02-04T16:41:49.252Z,101052.05
2019-02-04T16:44:39.768Z,101044.20
2019-02-04T16:47:23.236Z,101041.19
2019-02-04T16:51:10.955Z,101065.13
2019-02-04T16:54:02.658Z,101066.91
2019-02-04T16:56:53.120Z,101063.42
2019-02-04T16:59:36.352Z,101047.72
2019-02-04T17:02:26.786Z,101055.55
2019-02-04T17:05:10.121Z,101058.17
2019-02-04T17:08:19.443Z,101058.61
2019-02-04T17:11:02.729Z,101063.38
2019-02-04T17:13:53.121Z,101059.03
2019-02-04T17:16:36.823Z,101069.98
2019-02-04T17:19:47.647Z,101082.07
2019-02-04T17:22:52.982Z,101087.31
2019-02-04T17:25:43.882Z,101085.96
2019-02-04T17:28:27.713Z,101067.66
2019-02-04T17:31:18.146Z,101082.52
2019-02-04T17:34:25.017Z,101087.34
2019-02-04T17:37:15.424Z,101076.86
2019-02-04T17:39:58.386Z,101074.66
2019-02-04T17:42:51.480Z,101077.30
2019-02-04T17:45:54.410Z,101069.52
2019-02-04T17:48:44.826Z,101072.53
2019-02-04T17:51:31.829Z,101058.22
2019-02-04T17:54:20.817Z,101065.64
2019-02-04T17:57:06.009Z,101064.77
2019-02-04T17:59:56.326Z,101056.94
2019-02-04T18:02:39.310Z,101066.11
2019-02-04T18:05:29.701Z,101071.30
2019-02-04T18:08:12.931Z,101093.52
2019-02-04T18:14:27.185Z,101062.17
2019-02-04T18:17:36.568Z,101056.52
2019-02-04T18:20:19.796Z,101059.14
2019-02-04T18:23:11.305Z,101060.83
2019-02-04T18:26:15.064Z,101056.58
2019-02-04T18:32:12.003Z,101053.00
2019-02-04T18:35:02.462Z,101044.75
2019-02-04T18:37:45.352Z,101039.97
2019-02-04T18:40:35.743Z,101033.03
2019-02-04T18:43:18.757Z,101046.06
2019-02-04T18:46:09.202Z,101040.83
2019-02-04T18:49:13.518Z,101039.13
2019-02-04T18:52:04.046Z,101031.73
2019-02-04T18:55:10.277Z,101036.05
2019-02-04T18:58:11.370Z,101041.70
2019-02-04T19:01:01.796Z,101035.59
2019-02-04T19:03:45.202Z,101030.02
2019-02-04T19:06:47.149Z,101017.35
2019-02-04T19:09:40.331Z,101031.26
2019-02-04T19:12:30.717Z,101036.88
2019-02-04T19:15:14.934Z,101024.30
2019-02-04T19:18:09.882Z,101035.24
2019-02-04T19:20:41.277Z,101060.42
2019-02-04T19:23:31.718Z,101042.64
2019-02-04T19:26:43.700Z,101059.13
2019-02-04T19:29:27.161Z,101048.69
2019-02-04T19:32:17.557Z,101039.58
2019-02-04T19:35:00.905Z,101031.33
2019-02-04T19:37:35.266Z,101043.14
2019-02-04T19:40:25.678Z,101037.84
2019-02-04T19:43:15.501Z,101052.66
2019-02-04T19:45:58.815Z,101053.08
2019-02-04T19:48:49.264Z,101044.84
2019-02-04T19:51:32.363Z,101052.71
2019-02-04T19:54:22.832Z,101051.41
2019-02-04T19:57:06.649Z,101043.58
2019-02-04T20:00:11.843Z,101038.84
2019-02-04T20:03:02.257Z,101043.13
2019-02-04T20:05:45.257Z,101033.64
2019-02-04T20:08:35.671Z,101036.25
2019-02-04T20:11:46.798Z,101037.98
2019-02-04T20:14:51.653Z,101044.92
2019-02-04T20:17:42.070Z,101030.08
2019-02-04T20:20:25.235Z,101042.30
2019-02-04T20:23:18.080Z,101051.84
2019-02-04T20:26:21.204Z,101047.13
2019-02-04T20:29:11.602Z,101054.88
2019-02-04T20:31:54.390Z,101061.84
2019-02-04T20:34:44.808Z,101063.59
2019-02-04T20:37:49.431Z,101062.23
2019-02-04T20:40:40.000Z,101071.40
2019-02-04T20:43:22.543Z,101074.85
2019-02-04T20:46:13.441Z,101073.55
2019-02-04T20:48:56.825Z,101080.45
2019-02-04T20:51:47.333Z,101096.09
2019-02-04T20:54:30.087Z,101098.30
2019-02-04T20:57:20.538Z,101092.62
2019-02-04T21:00:04.095Z,101096.97
2019-02-04T21:02:54.779Z,101091.73
2019-02-04T21:05:37.767Z,101103.54
2019-02-04T21:08:28.264Z,101100.91
2019-02-04T21:11:11.690Z,101097.45
2019-02-04T21:14:02.925Z,101095.29
2019-02-04T21:17:07.118Z,101087.47
2019-02-04T21:19:57.479Z,101090.47
2019-02-04T21:22:40.145Z,101084.37
2019-02-04T21:25:30.510Z,101096.18
2019-02-04T21:28:13.187Z,101114.77
2019-02-04T21:31:03.548Z,101117.02
2019-02-04T21:33:47.042Z,101119.17
2019-02-04T21:36:37.419Z,101110.91
2019-02-04T21:39:20.970Z,101100.45
2019-02-04T21:42:11.326Z,101116.11
2019-02-04T21:44:54.099Z,101118.80
2019-02-04T21:47:44.748Z,101120.60
2019-02-04T21:50:28.221Z,101120.59
2019-02-04T21:53:18.606Z,101111.85
2019-02-04T21:56:21.658Z,101112.38
2019-02-04T21:59:32.369Z,101123.68
2019-02-04T22:02:15.710Z,101110.63
2019-02-04T22:05:08.317Z,101104.95
2019-02-04T22:07:51.074Z,101103.25
2019-02-04T22:10:35.037Z,101117.16
2019-02-04T22:13:25.778Z,101111.92
2019-02-04T22:16:09.174Z,101106.70
2019-02-04T22:18:59.541Z,101118.44
2019-02-04T22:21:42.331Z,101111.48
2019-02-04T22:24:32.773Z,101126.70
2019-02-04T22:27:15.735Z,101118.42
2019-02-04T22:33:54.743Z,101115.39
2019-02-04T22:36:45.499Z,101120.23
2019-02-04T22:39:49.957Z,101118.48
2019-02-04T22:42:40.292Z,101123.75
2019-02-04T22:45:43.559Z,101125.45
2019-02-04T22:48:33.927Z,101131.57
2019-02-04T22:51:17.185Z,101130.70
2019-02-04T22:54:07.543Z,101132.86
2019-02-04T22:57:10.568Z,101118.09
2019-02-04T23:00:00.913Z,101117.23
2019-02-04T23:02:43.972Z,101120.33
2019-02-04T23:05:34.366Z,101131.20
2019-02-04T23:08:17.333Z,101126.41
2019-02-04T23:11:00.136Z,101123.40
2019-02-04T23:13:50.512Z,101121.20
2019-02-04T23:16:33.315Z,101140.75
2019-02-04T23:19:23.668Z,101143.36
2019-02-04T23:22:06.522Z,101142.04
2019-02-04T23:24:56.908Z,101145.53
2019-02-04T23:27:40.432Z,101147.77
2019-02-04T23:30:30.794Z,101144.74
2019-02-04T23:33:13.890Z,101145.64
2019-02-04T23:36:15.616Z,101147.81
2019-02-04T23:42:56.026Z,101145.22
2019-02-04T23:45:46.428Z,101153.89
2019-02-04T23:48:36.797Z,101152.61
2019-02-04T23:51:19.679Z,101158.30
2019-02-04T23:54:10.109Z,101160.43
2019-02-04T23:56:52.707Z,101150.03
2019-02-04T23:59:43.084Z,101156.53
